Time;durP1;ratioP1;P1;durP2;ratioP2;P2;SDS_P1;SDS_P2;PMS_P1;PMS_P2;Temp;Humidity;BMP_temperature;BMP_pressure;BME280_temperature;BME280_humidity;BME280_pressure;Samples;Min_cycle;Max_cycle;Signal;HPM_P1;HPM_P2
2022/05/31 00:00:36;;;;;;;5.57;4.30;;;8.60;99.90;;;;;;7366785;32;20107;-62
2022/05/31 00:04:46;;;;;;;6.32;4.35;;;8.50;99.90;;;;;;7360021;32;20191;-62
2022/05/31 00:08:47;;;;;;;5.97;4.00;;;8.60;99.90;;;;;;7368870;32;20106;-61
2022/05/31 00:12:49;;;;;;;6.47;4.20;;;8.60;99.90;;;;;;7360879;32;20110;-62
2022/05/31 00:16:52;;;;;;;7.45;4.28;;;8.50;99.90;;;;;;7369205;32;20203;-60
2022/05/31 00:20:55;;;;;;;8.95;4.50;;;8.60;99.90;;;;;;7368454;32;20706;-61
2022/05/31 00:24:56;;;;;;;6.65;4.50;;;8.70;99.90;;;;;;7364379;32;20640;-62
2022/05/31 00:28:58;;;;;;;8.15;4.93;;;8.70;99.90;;;;;;7348398;32;20351;-62
2022/05/31 00:33:01;;;;;;;8.88;5.50;;;8.80;99.90;;;;;;7358911;32;20134;-61
2022/05/31 00:37:04;;;;;;;5.10;4.00;;;8.80;99.90;;;;;;7366931;32;20606;-63
2022/05/31 00:41:24;;;;;;;8.07;4.43;;;8.90;99.90;;;;;;7354891;32;20206;-62
2022/05/31 00:45:41;;;;;;;8.77;4.85;;;8.90;99.90;;;;;;7361182;32;20182;-62
2022/05/31 00:49:49;;;;;;;7.70;4.80;;;8.90;99.90;;;;;;7368523;32;20123;-62
2022/05/31 00:53:54;;;;;;;7.20;4.70;;;8.90;99.90;;;;;;7363788;32;20565;-60
2022/05/31 00:58:08;;;;;;;7.07;4.35;;;8.90;99.90;;;;;;7359301;32;20206;-61
2022/05/31 01:02:11;;;;;;;5.65;4.28;;;9.00;99.90;;;;;;7354957;32;20897;-60
2022/05/31 01:06:12;;;;;;;6.97;4.10;;;9.00;99.90;;;;;;7364132;32;20166;-61
2022/05/31 01:10:15;;;;;;;7.78;4.47;;;9.10;99.90;;;;;;7361467;32;20224;-61
2022/05/31 01:14:17;;;;;;;8.68;4.05;;;9.20;99.90;;;;;;7359102;32;20154;-63
2022/05/31 01:18:18;;;;;;;5.10;3.70;;;9.30;99.90;;;;;;7360658;32;20130;-61
2022/05/31 01:22:20;;;;;;;6.32;3.72;;;9.40;99.90;;;;;;7346469;32;20110;-61
2022/05/31 01:26:47;;;;;;;4.78;2.85;;;9.50;99.90;;;;;;7363968;32;20112;-61
2022/05/31 01:31:11;;;;;;;6.43;3.60;;;9.60;99.90;;;;;;7360964;32;20107;-59
2022/05/31 01:35:21;;;;;;;7.03;3.62;;;9.70;99.90;;;;;;7358246;32;20170;-60
2022/05/31 01:39:31;;;;;;;5.45;3.10;;;9.70;99.90;;;;;;7361485;32;20110;-60
2022/05/31 01:43:33;;;;;;;8.65;3.53;;;9.80;99.90;;;;;;7355541;32;20317;-59
2022/05/31 01:47:36;;;;;;;6.22;3.28;;;9.80;99.90;;;;;;7349359;32;20134;-59
2022/05/31 01:51:40;;;;;;;8.20;3.60;;;9.90;99.90;;;;;;7358762;32;20134;-60
2022/05/31 01:55:44;;;;;;;7.25;3.35;;;9.90;99.90;;;;;;7360256;32;20118;-59
2022/05/31 01:59:51;;;;;;;6.00;2.90;;;9.90;99.90;;;;;;7361431;32;20226;-60
2022/05/31 02:03:53;;;;;;;5.43;3.50;;;10.00;99.90;;;;;;7360656;32;20204;-60
2022/05/31 02:07:57;;;;;;;10.85;2.97;;;10.00;99.90;;;;;;7364157;32;20115;-61
2022/05/31 02:11:59;;;;;;;5.82;2.65;;;10.00;99.90;;;;;;7360653;32;20839;-60
2022/05/31 02:16:01;;;;;;;5.95;3.25;;;10.00;99.90;;;;;;7364019;32;20138;-59
2022/05/31 02:20:03;;;;;;;5.47;2.90;;;10.00;99.90;;;;;;7359801;32;20111;-60
2022/05/31 02:24:10;;;;;;;5.53;2.70;;;9.90;99.90;;;;;;7363128;32;20255;-60
2022/05/31 02:28:11;;;;;;;5.78;2.80;;;9.90;99.90;;;;;;7353624;32;20149;-59
2022/05/31 02:32:14;;;;;;;5.22;2.40;;;9.90;99.90;;;;;;7356717;32;20204;-60
2022/05/31 02:36:16;;;;;;;4.32;2.53;;;9.90;99.90;;;;;;7353575;32;20264;-60
2022/05/31 02:40:18;;;;;;;6.15;2.90;;;9.90;99.90;;;;;;7357068;32;20258;-59
2022/05/31 02:44:20;;;;;;;4.95;3.10;;;9.90;99.90;;;;;;7354053;32;20135;-60
2022/05/31 02:48:22;;;;;;;5.20;3.12;;;9.80;99.90;;;;;;7354178;32;20851;-60
2022/05/31 02:52:24;;;;;;;3.85;2.95;;;9.70;99.90;;;;;;7357171;32;20193;-59
2022/05/31 02:56:26;;;;;;;4.55;2.97;;;9.60;99.90;;;;;;7366036;32;20116;-60
2022/05/31 03:00:27;;;;;;;4.70;2.55;;;9.60;99.90;;;;;;7365124;32;20487;-60
2022/05/31 03:04:29;;;;;;;8.73;2.95;;;9.60;99.90;;;;;;7348958;32;20119;-60
2022/05/31 03:08:31;;;;;;;4.75;2.85;;;9.60;99.90;;;;;;7362021;32;20174;-60
2022/05/31 03:12:34;;;;;;;3.90;2.55;;;9.50;99.90;;;;;;7360168;32;20609;-59
2022/05/31 03:16:40;;;;;;;4.93;2.50;;;9.50;99.90;;;;;;7367958;32;20107;-59
2022/05/31 03:20:52;;;;;;;3.00;2.43;;;9.60;99.90;;;;;;7343419;32;20111;-59
2022/05/31 03:25:07;;;;;;;4.03;2.45;;;9.60;99.90;;;;;;7360001;32;20129;-60
2022/05/31 03:29:10;;;;;;;4.57;2.50;;;9.70;99.90;;;;;;7359702;32;20170;-59
2022/05/31 03:33:13;;;;;;;7.47;2.65;;;9.70;99.90;;;;;;7356488;32;20230;-59
2022/05/31 03:37:14;;;;;;;6.68;2.75;;;9.70;99.90;;;;;;7354225;32;20475;-60
2022/05/31 03:41:16;;;;;;;6.75;2.60;;;9.70;99.90;;;;;;7358603;32;20230;-60
2022/05/31 03:45:18;;;;;;;4.28;3.03;;;9.70;99.90;;;;;;7358621;32;20115;-60
2022/05/31 03:49:20;;;;;;;4.87;2.53;;;9.50;99.90;;;;;;7362683;32;20237;-60
2022/05/31 03:53:21;;;;;;;9.10;2.85;;;9.50;99.90;;;;;;7362010;32;20253;-60
2022/05/31 03:57:23;;;;;;;6.50;2.72;;;9.60;99.90;;;;;;7363937;32;20139;-59
2022/05/31 04:01:25;;;;;;;5.85;2.62;;;9.60;99.90;;;;;;7360031;32;20513;-60
2022/05/31 04:05:27;;;;;;;4.70;2.90;;;9.50;99.90;;;;;;7368663;32;20236;-60
2022/05/31 04:09:29;;;;;;;6.57;2.87;;;9.50;99.90;;;;;;7364154;32;20116;-60
2022/05/31 04:13:30;;;;;;;8.82;3.10;;;9.60;99.90;;;;;;7341829;32;20269;-60
2022/05/31 04:17:32;;;;;;;5.28;2.47;;;9.60;99.90;;;;;;7357628;32;20243;-60
2022/05/31 04:21:34;;;;;;;4.20;2.47;;;9.60;99.90;;;;;;7353426;32;20107;-60
2022/05/31 04:25:36;;;;;;;6.93;2.60;;;9.70;99.90;;;;;;7364185;32;20111;-60
2022/05/31 04:29:37;;;;;;;6.47;2.65;;;9.70;99.90;;;;;;7365521;32;20111;-60
2022/05/31 04:33:39;;;;;;;10.57;3.17;;;9.70;99.90;;;;;;7359991;32;20137;-60
2022/05/31 04:37:41;;;;;;;4.53;2.53;;;9.70;99.90;;;;;;7364330;32;20133;-59
2022/05/31 04:41:43;;;;;;;5.80;2.90;;;9.70;99.90;;;;;;7365196;32;20624;-60
2022/05/31 04:45:45;;;;;;;5.90;2.90;;;9.80;99.90;;;;;;7367871;32;20607;-62
2022/05/31 04:49:46;;;;;;;7.15;2.85;;;9.90;99.90;;;;;;7359606;32;20466;-62
2022/05/31 04:53:49;;;;;;;7.35;2.75;;;9.90;99.90;;;;;;7352837;32;20675;-63
2022/05/31 04:57:50;;;;;;;7.35;2.72;;;9.90;99.90;;;;;;7347408;32;20213;-63
2022/05/31 05:01:52;;;;;;;5.93;4.57;;;9.90;99.90;;;;;;7346569;32;20119;-63
2022/05/31 05:05:58;;;;;;;6.80;2.90;;;10.00;99.90;;;;;;7354255;32;20180;-63
2022/05/31 05:10:00;;;;;;;5.10;2.78;;;10.00;99.90;;;;;;7359035;32;20321;-63
2022/05/31 05:14:02;;;;;;;4.25;2.78;;;10.00;99.90;;;;;;7342594;32;20119;-62
2022/05/31 05:18:04;;;;;;;4.78;2.50;;;10.10;99.90;;;;;;7358895;32;20106;-63
2022/05/31 05:22:05;;;;;;;6.43;2.25;;;10.10;99.90;;;;;;7364707;32;20139;-62
2022/05/31 05:26:08;;;;;;;6.20;2.58;;;10.20;99.90;;;;;;7359426;32;20646;-63
2022/05/31 05:34:30;;;;;;;9.52;5.57;;;10.30;99.90;;;;;;7363307;32;20099;-63
2022/05/31 05:38:32;;;;;;;8.10;2.72;;;10.40;99.90;;;;;;7364145;32;20178;-62
2022/05/31 05:42:33;;;;;;;3.83;2.35;;;10.60;99.90;;;;;;7364573;32;20202;-63
2022/05/31 05:46:35;;;;;;;4.00;2.00;;;10.80;99.90;;;;;;7353222;32;20111;-65
2022/05/31 05:50:37;;;;;;;4.32;2.08;;;11.00;99.90;;;;;;7357416;32;20190;-63
2022/05/31 05:54:39;;;;;;;8.70;2.60;;;11.20;99.90;;;;;;7360126;32;20107;-63
2022/05/31 05:58:42;;;;;;;4.18;1.75;;;11.20;99.90;;;;;;7359882;32;20252;-66
2022/05/31 06:02:49;;;;;;;3.45;1.75;;;11.30;99.90;;;;;;7362423;32;20189;-62
2022/05/31 06:07:09;;;;;;;5.20;1.87;;;11.40;99.90;;;;;;7344145;32;20135;-65
2022/05/31 06:11:25;;;;;;;6.40;1.77;;;11.50;99.90;;;;;;7362326;32;20099;-64
2022/05/31 06:15:34;;;;;;;5.55;2.30;;;11.50;99.90;;;;;;7354310;32;20296;-65
2022/05/31 06:19:37;;;;;;;3.08;1.65;;;11.60;99.90;;;;;;7338953;32;20520;-63
2022/05/31 06:23:39;;;;;;;4.50;2.00;;;11.60;99.90;;;;;;7352536;32;20111;-63
2022/05/31 06:27:40;;;;;;;6.28;2.55;;;11.70;99.90;;;;;;7362563;32;20108;-63
2022/05/31 06:31:42;;;;;;;6.85;2.42;;;11.70;99.90;;;;;;7340520;32;20184;-62
2022/05/31 06:35:44;;;;;;;5.97;2.53;;;11.70;99.90;;;;;;7362925;32;20807;-64
2022/05/31 06:39:46;;;;;;;5.28;2.50;;;11.60;99.90;;;;;;7360585;32;20104;-63
2022/05/31 06:43:48;;;;;;;4.47;2.22;;;11.60;99.90;;;;;;7358194;32;20156;-64
2022/05/31 06:47:51;;;;;;;5.07;2.40;;;11.70;99.90;;;;;;7349349;32;20110;-64
2022/05/31 07:00:34;;;;;;;5.37;2.40;;;11.60;99.90;;;;;;7353069;32;20108;-65
2022/05/31 07:04:36;;;;;;;4.00;2.25;;;11.60;99.90;;;;;;7243013;32;20154;-64
2022/05/31 07:08:38;;;;;;;6.87;3.10;;;11.50;99.90;;;;;;7234066;32;20193;-63
2022/05/31 07:12:41;;;;;;;5.00;2.50;;;11.40;99.90;;;;;;7235704;32;20472;-64
2022/05/31 07:16:43;;;;;;;4.43;2.78;;;11.30;99.90;;;;;;7241067;32;20180;-64
2022/05/31 07:20:45;;;;;;;5.93;2.65;;;11.10;99.90;;;;;;7244552;32;20131;-63
2022/05/31 07:24:47;;;;;;;9.30;3.12;;;11.00;99.90;;;;;;7284734;32;20324;-64
2022/05/31 07:28:49;;;;;;;5.93;3.40;;;11.00;99.90;;;;;;7240717;32;20125;-66
2022/05/31 07:32:51;;;;;;;6.78;3.80;;;10.90;99.90;;;;;;7237931;32;20112;-64
2022/05/31 07:37:13;;;;;;;6.55;3.78;;;10.90;99.90;;;;;;7236132;32;20191;-65
2022/05/31 07:41:15;;;;;;;6.53;4.53;;;11.10;99.90;;;;;;7236508;32;20117;-65
2022/05/31 07:45:21;;;;;;;7.70;4.35;;;11.10;99.90;;;;;;7231557;32;20127;-64
2022/05/31 07:49:22;;;;;;;12.27;5.22;;;11.10;99.90;;;;;;7232204;32;20490;-64
2022/05/31 07:53:24;;;;;;;10.77;4.82;;;10.80;99.90;;;;;;7239543;32;20112;-63
2022/05/31 08:01:46;;;;;;;7.97;5.15;;;11.00;99.90;;;;;;7272188;32;20119;-65
2022/05/31 08:05:48;;;;;;;5.65;4.50;;;11.30;99.90;;;;;;7362879;32;20228;-64
2022/05/31 08:09:50;;;;;;;7.70;4.80;;;11.40;99.90;;;;;;7357654;32;20792;-65
2022/05/31 08:13:53;;;;;;;11.20;5.05;;;11.40;99.90;;;;;;7363959;32;20172;-63
2022/05/31 08:17:55;;;;;;;8.90;5.40;;;11.50;99.90;;;;;;7353474;32;20233;-64
2022/05/31 08:21:57;;;;;;;9.73;5.35;;;11.50;99.90;;;;;;7364117;32;20251;-64
2022/05/31 08:25:59;;;;;;;8.70;6.45;;;11.60;99.90;;;;;;7364018;32;20240;-64
2022/05/31 08:30:03;;;;;;;8.88;6.35;;;11.80;99.90;;;;;;7360091;32;20491;-63
2022/05/31 08:34:05;;;;;;;13.20;6.50;;;11.80;99.90;;;;;;7362263;32;20115;-63
2022/05/31 08:38:07;;;;;;;8.60;5.68;;;11.90;99.90;;;;;;7361853;32;20137;-63
2022/05/31 08:42:13;;;;;;;8.02;5.80;;;12.10;99.90;;;;;;7360962;32;20583;-63
2022/05/31 08:46:32;;;;;;;12.03;5.47;;;12.20;99.90;;;;;;7361389;32;20231;-63
2022/05/31 09:00:19;;;;;;;6.47;4.53;;;13.30;99.90;;;;;;7357025;32;20289;-62
2022/05/31 09:04:26;;;;;;;6.62;4.00;;;13.20;99.90;;;;;;7351522;32;20137;-65
2022/05/31 09:08:46;;;;;;;4.45;3.60;;;13.30;99.90;;;;;;7358635;32;20262;-63
2022/05/31 09:13:02;;;;;;;5.70;3.40;;;13.50;99.90;;;;;;7346731;32;20703;-65
2022/05/31 09:17:21;;;;;;;6.45;3.40;;;13.70;99.90;;;;;;7360665;32;20988;-63
2022/05/31 09:21:40;;;;;;;8.05;3.10;;;13.60;99.90;;;;;;7352460;32;20245;-63
2022/05/31 09:25:42;;;;;;;5.80;4.20;;;13.80;99.90;;;;;;7346362;32;20134;-63
2022/05/31 09:29:57;;;;;;;8.20;2.90;;;14.10;99.90;;;;;;7366287;32;20194;-62
2022/05/31 09:34:31;;;;;;;5.80;3.17;;;14.20;99.90;;;;;;7344788;32;20139;-65
2022/05/31 09:38:57;;;;;;;7.45;4.43;;;14.20;99.90;;;;;;7327169;32;20441;-63
2022/05/31 09:43:13;;;;;;;24.35;15.32;;;14.20;99.90;;;;;;7344321;32;20201;-63
2022/05/31 09:47:26;;;;;;;13.32;8.35;;;14.20;99.90;;;;;;7351299;32;20119;-64
2022/05/31 09:51:36;;;;;;;7.37;2.83;;;14.50;99.90;;;;;;7365040;32;20467;-64
2022/05/31 10:00:13;;;;;;;6.32;2.67;;;14.40;99.90;;;;;;7360828;32;20220;-64
2022/05/31 10:04:30;;;;;;;4.62;2.78;;;14.40;99.90;;;;;;7355726;32;20119;-63
2022/05/31 10:08:34;;;;;;;3.83;2.20;;;14.70;99.90;;;;;;7354555;32;20301;-65
2022/05/31 10:12:39;;;;;;;5.60;2.25;;;15.00;99.90;;;;;;7358539;32;20743;-63
2022/05/31 10:16:42;;;;;;;6.82;2.20;;;15.60;99.90;;;;;;7358045;32;20133;-63
2022/05/31 10:20:54;;;;;;;4.35;1.87;;;16.10;99.90;;;;;;7360491;32;20143;-63
2022/05/31 10:24:55;;;;;;;5.82;2.00;;;17.40;99.90;;;;;;7356279;32;20111;-65
2022/05/31 10:29:07;;;;;;;6.10;2.17;;;18.60;99.90;;;;;;7343289;32;20188;-64
2022/05/31 10:33:23;;;;;;;4.87;1.85;;;19.60;99.90;;;;;;7350324;32;20238;-64
2022/05/31 10:37:32;;;;;;;5.40;2.45;;;20.40;99.90;;;;;;7356876;32;20271;-64
2022/05/31 10:41:35;;;;;;;3.90;2.08;;;19.00;99.90;;;;;;7342640;32;20334;-64
2022/05/31 10:45:55;;;;;;;6.65;2.30;;;18.40;99.90;;;;;;7356610;32;20788;-63
2022/05/31 10:49:57;;;;;;;4.32;2.60;;;17.10;99.90;;;;;;7354741;32;20267;-63
2022/05/31 10:54:27;;;;;;;4.90;2.72;;;17.00;99.90;;;;;;7357176;32;20812;-64
2022/05/31 10:58:37;;;;;;;4.70;2.40;;;16.50;99.90;;;;;;7353016;32;20210;-64
2022/05/31 11:02:49;;;;;;;4.40;2.33;;;16.40;99.90;;;;;;7357787;32;20165;-63
2022/05/31 11:07:05;;;;;;;7.32;3.03;;;16.80;99.90;;;;;;7339152;32;20143;-63
2022/05/31 11:11:30;;;;;;;6.10;3.00;;;16.90;99.90;;;;;;7348656;32;20222;-63
2022/05/31 11:15:37;;;;;;;4.35;2.87;;;16.70;99.90;;;;;;7351684;32;20270;-63
2022/05/31 11:19:58;;;;;;;4.32;2.58;;;17.20;99.90;;;;;;7353821;32;20529;-63
2022/05/31 11:24:18;;;;;;;8.75;3.10;;;17.70;99.90;;;;;;7354610;32;20119;-64
2022/05/31 11:28:31;;;;;;;5.28;2.80;;;17.30;99.90;;;;;;7353587;32;20615;-57
2022/05/31 11:32:51;;;;;;;4.85;2.28;;;17.70;99.90;;;;;;7355246;32;20129;-57
2022/05/31 11:37:08;;;;;;;3.33;2.08;;;18.00;99.90;;;;;;7355458;32;20133;-57
2022/05/31 11:41:24;;;;;;;4.85;2.53;;;18.40;99.90;;;;;;7344216;32;20242;-59
2022/05/31 11:45:42;;;;;;;5.60;2.90;;;18.00;99.90;;;;;;7355531;32;20213;-65
2022/05/31 11:49:55;;;;;;;3.20;2.00;;;17.60;99.90;;;;;;7341116;32;20210;-65
2022/05/31 11:54:24;;;;;;;7.22;1.95;;;17.70;99.90;;;;;;7358507;32;20107;-66
2022/05/31 11:58:39;;;;;;;6.25;2.50;;;18.10;99.90;;;;;;7355849;32;20111;-61
2022/05/31 12:02:47;;;;;;;5.37;2.42;;;18.50;99.90;;;;;;7355365;32;20447;-61
2022/05/31 12:07:16;;;;;;;5.00;2.35;;;18.40;99.90;;;;;;7353125;32;20201;-61
2022/05/31 12:11:29;;;;;;;7.45;2.67;;;18.00;99.90;;;;;;7358892;32;20114;-61
2022/05/31 12:15:34;;;;;;;4.32;2.17;;;18.00;99.90;;;;;;7352921;32;20138;-60
2022/05/31 12:20:04;;;;;;;4.18;2.15;;;17.70;99.90;;;;;;7344291;32;20142;-60
2022/05/31 12:24:14;;;;;;;5.72;1.75;;;18.00;99.90;;;;;;7357017;32;20111;-60
2022/05/31 12:28:24;;;;;;;4.12;2.00;;;18.40;99.90;;;;;;7363207;32;20484;-60
2022/05/31 12:32:39;;;;;;;3.75;1.70;;;18.70;99.90;;;;;;7346377;32;20125;-60
2022/05/31 12:37:07;;;;;;;4.05;1.80;;;18.60;99.90;;;;;;7343880;32;20111;-61
2022/05/31 12:41:32;;;;;;;3.47;1.90;;;18.20;99.90;;;;;;7359956;32;20197;-60
2022/05/31 12:45:33;;;;;;;3.55;1.70;;;18.30;99.90;;;;;;7353934;32;20459;-60
2022/05/31 12:49:46;;;;;;;4.53;1.80;;;18.30;99.90;;;;;;7346094;32;20734;-60
2022/05/31 12:54:01;;;;;;;3.62;1.50;;;17.90;99.90;;;;;;7356371;32;20111;-61
2022/05/31 12:58:26;;;;;;;3.78;1.60;;;18.40;99.90;;;;;;7360356;32;20110;-61
2022/05/31 13:02:37;;;;;;;4.00;1.70;;;18.20;99.90;;;;;;7355459;32;20474;-62
2022/05/31 13:07:02;;;;;;;2.35;1.40;;;18.60;99.90;;;;;;7357316;32;20190;-61
2022/05/31 13:19:59;;;;;;;6.70;3.55;;;18.50;99.90;;;;;;7348919;32;20149;-65
2022/05/31 13:24:11;;;;;;;2.08;1.10;;;18.20;99.90;;;;;;7360413;32;20104;-65
2022/05/31 13:28:34;;;;;;;4.32;1.10;;;17.70;95.80;;;;;;7341220;32;21413;-63
2022/05/31 13:32:38;;;;;;;2.72;1.12;;;17.80;99.60;;;;;;7357770;32;20127;-58
2022/05/31 13:36:45;;;;;;;2.55;1.10;;;17.80;99.20;;;;;;7362513;32;20198;-64
2022/05/31 13:40:54;;;;;;;3.87;1.27;;;18.00;97.50;;;;;;7359666;32;20655;-64
2022/05/31 13:45:05;;;;;;;1.60;1.05;;;18.10;93.80;;;;;;7364848;32;20498;-64
2022/05/31 13:49:23;;;;;;;2.55;1.20;;;18.00;97.90;;;;;;7356938;32;20549;-66
2022/05/31 13:53:32;;;;;;;4.68;1.00;;;17.90;96.90;;;;;;7360941;32;20129;-66
2022/05/31 13:57:34;;;;;;;2.70;1.10;;;18.30;97.00;;;;;;7358647;32;20135;-66
2022/05/31 14:01:43;;;;;;;2.22;1.30;;;18.30;98.00;;;;;;7363280;32;20134;-65
2022/05/31 14:05:53;;;;;;;2.85;1.12;;;18.30;97.20;;;;;;7359686;32;20107;-65
2022/05/31 14:09:55;;;;;;;2.30;1.10;;;17.70;99.10;;;;;;7362068;32;20130;-65
2022/05/31 14:14:00;;;;;;;1.05;0.90;;;17.70;99.60;;;;;;7359374;32;20210;-66
2022/05/31 14:18:09;;;;;;;3.70;1.37;;;17.60;99.40;;;;;;7353473;32;20764;-65
2022/05/31 14:22:26;;;;;;;2.55;1.10;;;17.40;99.90;;;;;;7354411;32;20125;-64
2022/05/31 14:26:28;;;;;;;2.87;1.25;;;17.00;99.90;;;;;;7363786;32;20249;-65
2022/05/31 14:30:48;;;;;;;2.55;1.10;;;16.90;99.90;;;;;;7358118;32;20181;-64
2022/05/31 14:34:53;;;;;;;3.83;1.00;;;16.60;99.90;;;;;;7358760;32;20285;-64
2022/05/31 14:38:58;;;;;;;3.05;1.60;;;16.30;99.90;;;;;;7356778;32;20161;-65
2022/05/31 14:43:04;;;;;;;2.67;1.00;;;16.00;99.90;;;;;;7361219;32;20213;-65
2022/05/31 14:47:12;;;;;;;4.07;1.75;;;15.80;99.90;;;;;;7343076;32;20190;-66
2022/05/31 14:51:21;;;;;;;5.35;2.47;;;15.70;99.90;;;;;;7358617;32;20099;-66
2022/05/31 14:55:23;;;;;;;4.57;2.45;;;14.80;99.90;;;;;;7353234;32;20194;-65
2022/05/31 14:59:28;;;;;;;6.15;2.60;;;13.90;99.90;;;;;;7358226;32;20257;-65
2022/05/31 15:03:38;;;;;;;5.40;2.70;;;13.30;99.90;;;;;;7357138;32;20182;-65
2022/05/31 15:08:00;;;;;;;5.25;2.42;;;13.00;99.90;;;;;;7353056;32;20198;-65
2022/05/31 15:20:54;;;;;;;7.35;2.92;;;13.10;99.90;;;;;;7332668;32;20208;-64
2022/05/31 15:24:57;;;;;;;4.18;2.50;;;13.40;99.90;;;;;;7348789;32;20110;-66
2022/05/31 15:28:59;;;;;;;5.50;2.42;;;13.60;99.90;;;;;;7340851;32;20115;-64
2022/05/31 15:33:10;;;;;;;3.92;2.10;;;13.80;99.90;;;;;;7348989;32;20226;-65
2022/05/31 15:37:13;;;;;;;4.07;1.70;;;13.90;99.90;;;;;;7356163;32;20193;-65
2022/05/31 15:41:14;;;;;;;4.15;2.28;;;14.00;99.90;;;;;;7357567;32;20470;-65
2022/05/31 15:45:16;;;;;;;3.85;2.72;;;14.10;99.90;;;;;;7366794;32;20260;-65
2022/05/31 15:49:18;;;;;;;3.95;2.35;;;14.10;99.90;;;;;;7363717;32;20110;-66
2022/05/31 15:53:20;;;;;;;4.80;2.60;;;14.10;99.90;;;;;;7370961;32;20124;-65
2022/05/31 15:57:23;;;;;;;5.22;3.30;;;14.40;99.90;;;;;;7363405;32;20206;-67
2022/05/31 16:01:26;;;;;;;3.78;2.30;;;14.60;99.90;;;;;;7352011;32;20182;-67
2022/05/31 16:05:28;;;;;;;2.22;1.83;;;14.80;99.90;;;;;;7364465;32;20666;-65
2022/05/31 16:09:32;;;;;;;2.00;1.70;;;14.90;99.90;;;;;;7330776;32;20133;-64
2022/05/31 16:13:34;;;;;;;2.12;1.60;;;15.10;99.90;;;;;;7365603;32;20131;-65
2022/05/31 16:17:36;;;;;;;5.00;1.70;;;15.10;99.90;;;;;;7360636;32;20234;-65
2022/05/31 16:21:38;;;;;;;3.05;1.62;;;15.20;99.90;;;;;;7363799;32;20190;-65
2022/05/31 16:25:40;;;;;;;3.70;1.77;;;15.30;99.90;;;;;;7362721;32;20198;-65
2022/05/31 16:29:42;;;;;;;5.07;3.12;;;15.40;99.90;;;;;;7361169;32;20134;-64
2022/05/31 16:33:43;;;;;;;5.05;3.28;;;15.50;99.90;;;;;;7360928;32;20487;-65
2022/05/31 16:42:05;;;;;;;3.55;1.42;;;15.60;99.90;;;;;;7364300;32;20551;-65
2022/05/31 16:46:07;;;;;;;2.67;1.65;;;15.60;99.90;;;;;;7345163;32;20337;-66
2022/05/31 16:50:18;;;;;;;3.28;1.65;;;15.60;99.90;;;;;;7353161;32;20193;-65
2022/05/31 16:54:32;;;;;;;1.70;1.20;;;15.50;99.90;;;;;;7358660;32;20206;-65
2022/05/31 16:58:33;;;;;;;2.10;1.27;;;15.50;99.90;;;;;;7357045;32;20161;-65
2022/05/31 17:02:35;;;;;;;1.92;1.33;;;15.50;99.90;;;;;;7359637;32;20129;-64
2022/05/31 17:15:24;;;;;;;2.17;1.12;;;15.50;99.90;;;;;;7358031;32;20801;-65
2022/05/31 17:19:26;;;;;;;1.42;1.05;;;15.60;99.90;;;;;;7362096;32;20115;-66
2022/05/31 17:23:34;;;;;;;4.32;1.73;;;15.60;99.90;;;;;;7362267;32;20156;-65
2022/05/31 17:27:36;;;;;;;3.45;1.27;;;15.40;99.90;;;;;;7351795;32;20107;-65
2022/05/31 17:31:38;;;;;;;1.95;1.00;;;15.30;99.90;;;;;;7343547;32;20175;-66
2022/05/31 17:35:41;;;;;;;1.52;1.08;;;15.30;99.90;;;;;;7349757;32;20213;-66
2022/05/31 17:39:43;;;;;;;2.60;1.45;;;15.20;99.90;;;;;;7360998;32;20162;-64
2022/05/31 17:43:44;;;;;;;2.33;1.52;;;14.90;99.90;;;;;;7369692;32;20180;-68
2022/05/31 17:47:47;;;;;;;1.73;1.20;;;14.80;99.90;;;;;;7331185;32;20234;-68
2022/05/31 17:51:50;;;;;;;3.42;1.40;;;14.70;99.90;;;;;;7362046;32;20115;-68
2022/05/31 17:55:51;;;;;;;2.60;1.52;;;14.60;99.90;;;;;;7361057;32;20224;-64
2022/05/31 17:59:53;;;;;;;3.22;1.55;;;14.50;99.90;;;;;;7361638;32;20099;-65
2022/05/31 18:03:55;;;;;;;3.92;1.60;;;14.40;99.90;;;;;;7361402;32;20111;-64
2022/05/31 18:07:57;;;;;;;3.10;2.17;;;14.30;99.90;;;;;;7358317;32;20107;-67
2022/05/31 18:11:59;;;;;;;2.80;1.98;;;14.30;99.90;;;;;;7361169;32;20149;-67
2022/05/31 18:16:01;;;;;;;3.10;2.15;;;14.20;99.90;;;;;;7368484;32;20256;-67
2022/05/31 18:20:03;;;;;;;3.50;2.05;;;14.10;99.90;;;;;;7346722;32;20710;-66
2022/05/31 18:24:11;;;;;;;3.50;1.80;;;14.00;99.90;;;;;;7362686;32;20108;-66
2022/05/31 18:32:40;;;;;;;3.05;1.92;;;13.80;99.90;;;;;;7362317;32;20122;-67
2022/05/31 18:40:55;;;;;;;5.90;1.87;;;13.50;99.90;;;;;;7370499;32;20133;-68
2022/05/31 18:45:02;;;;;;;2.90;1.92;;;13.30;99.90;;;;;;7335612;32;20451;-68
2022/05/31 18:49:04;;;;;;;4.10;2.30;;;13.20;99.90;;;;;;7366689;32;20892;-69
2022/05/31 18:53:07;;;;;;;3.10;1.85;;;13.10;99.90;;;;;;7367706;32;20258;-66
2022/05/31 18:57:09;;;;;;;3.67;2.08;;;13.00;99.90;;;;;;7368185;32;20137;-67
2022/05/31 19:01:11;;;;;;;6.47;2.35;;;13.00;99.90;;;;;;7364044;32;20115;-68
2022/05/31 19:05:18;;;;;;;4.32;2.10;;;12.90;99.90;;;;;;7355153;32;20279;-70
2022/05/31 19:09:20;;;;;;;4.50;2.60;;;12.90;99.90;;;;;;7363468;32;20126;-72
2022/05/31 19:13:30;;;;;;;4.15;2.62;;;12.80;99.90;;;;;;7372481;32;20182;-67
2022/05/31 19:17:32;;;;;;;5.45;2.97;;;12.80;99.90;;;;;;7355322;32;20744;-68
2022/05/31 19:21:36;;;;;;;4.00;2.30;;;12.80;99.90;;;;;;7375018;32;20526;-69
2022/05/31 19:25:37;;;;;;;4.22;2.53;;;12.70;99.90;;;;;;7370557;32;20102;-70
2022/05/31 19:29:39;;;;;;;4.40;2.42;;;12.70;99.90;;;;;;7371551;32;20111;-68
2022/05/31 19:33:45;;;;;;;2.40;2.00;;;12.70;99.90;;;;;;7367915;32;20240;-68
2022/05/31 19:37:50;;;;;;;3.92;2.58;;;12.60;99.90;;;;;;7370684;32;20299;-68
2022/05/31 19:41:55;;;;;;;6.72;2.80;;;12.70;99.90;;;;;;7358139;32;20143;-69
2022/05/31 19:45:56;;;;;;;3.92;2.45;;;12.70;99.90;;;;;;7367801;32;20412;-66
2022/05/31 19:50:01;;;;;;;4.75;2.30;;;12.70;99.90;;;;;;7374429;32;20249;-66
2022/05/31 19:54:03;;;;;;;4.80;2.37;;;12.80;99.90;;;;;;7371300;32;20926;-66
2022/05/31 19:58:05;;;;;;;6.93;2.75;;;12.90;99.90;;;;;;7362212;32;20693;-65
2022/05/31 20:02:07;;;;;;;6.60;3.47;;;13.00;99.90;;;;;;7356560;32;20214;-64
2022/05/31 20:06:10;;;;;;;5.40;3.47;;;12.90;99.90;;;;;;7366957;32;20110;-64
2022/05/31 20:10:18;;;;;;;4.87;3.95;;;12.80;99.90;;;;;;7368788;32;20640;-63
2022/05/31 20:14:22;;;;;;;9.45;4.82;;;12.60;99.90;;;;;;7363944;32;20103;-62
2022/05/31 20:22:35;;;;;;;5.80;5.22;;;11.70;99.90;;;;;;7354154;32;20361;-64
2022/05/31 20:26:41;;;;;;;9.45;6.20;;;11.00;99.90;;;;;;7350122;32;20159;-63
2022/05/31 20:30:43;;;;;;;7.53;5.15;;;11.00;99.90;;;;;;7357640;32;20130;-61
2022/05/31 20:34:45;;;;;;;33.22;20.15;;;11.00;99.90;;;;;;7354759;32;20133;-61
2022/05/31 20:38:49;;;;;;;25.40;15.93;;;10.70;99.90;;;;;;7372830;32;20311;-62
2022/05/31 20:42:55;;;;;;;12.95;9.48;;;10.70;99.90;;;;;;7362322;32;20179;-61
2022/05/31 20:46:57;;;;;;;10.70;7.87;;;10.70;99.90;;;;;;7361789;32;20115;-60
2022/05/31 20:50:59;;;;;;;9.82;7.18;;;10.60;99.90;;;;;;7352863;32;20114;-61
2022/05/31 20:55:02;;;;;;;10.95;8.35;;;10.60;99.90;;;;;;7373037;32;20174;-62
2022/05/31 20:59:06;;;;;;;8.98;7.50;;;10.50;99.90;;;;;;7360862;32;20283;-60
2022/05/31 21:03:08;;;;;;;8.45;7.20;;;10.40;99.90;;;;;;7353858;32;20137;-61
2022/05/31 21:07:10;;;;;;;8.13;6.53;;;10.30;99.90;;;;;;7371957;32;20125;-61
2022/05/31 21:11:12;;;;;;;10.60;6.85;;;10.20;99.90;;;;;;7366447;32;20236;-61
2022/05/31 21:15:14;;;;;;;7.30;6.30;;;10.00;99.90;;;;;;7357518;32;20153;-61
2022/05/31 21:19:16;;;;;;;8.73;7.62;;;10.00;99.90;;;;;;7366712;32;20175;-61
2022/05/31 21:23:18;;;;;;;9.30;7.15;;;10.00;99.90;;;;;;7364540;32;20138;-61
2022/05/31 21:27:20;;;;;;;10.15;7.28;;;9.90;99.90;;;;;;7332577;32;20221;-61
2022/05/31 21:31:22;;;;;;;10.75;7.80;;;9.90;99.90;;;;;;7348858;32;20551;-61
2022/05/31 21:35:25;;;;;;;10.13;7.47;;;9.90;99.90;;;;;;7351503;32;20152;-60
2022/05/31 21:43:49;;;;;;;9.48;7.32;;;9.90;99.90;;;;;;7361599;32;20110;-61
2022/05/31 21:47:51;;;;;;;9.15;7.30;;;10.00;99.90;;;;;;7352972;32;20229;-61
2022/05/31 21:51:53;;;;;;;10.38;7.80;;;10.00;99.90;;;;;;7367190;32;20195;-61
2022/05/31 21:55:55;;;;;;;9.70;8.70;;;10.10;99.90;;;;;;7369461;32;20115;-61
2022/05/31 21:59:57;;;;;;;11.48;9.25;;;10.20;99.90;;;;;;7367841;32;20216;-62
2022/05/31 22:04:00;;;;;;;10.75;9.65;;;10.20;99.90;;;;;;7352883;32;20111;-61
2022/05/31 22:08:02;;;;;;;12.60;9.88;;;10.20;99.90;;;;;;7363485;32;20260;-61
2022/05/31 22:12:05;;;;;;;11.40;9.45;;;10.20;99.90;;;;;;7343095;32;20530;-61
2022/05/31 22:16:06;;;;;;;18.10;8.80;;;10.20;99.90;;;;;;7361930;32;20110;-60
2022/05/31 22:20:09;;;;;;;10.05;8.52;;;10.30;99.90;;;;;;7358018;32;20219;-61
2022/05/31 22:24:12;;;;;;;10.00;7.80;;;10.20;99.90;;;;;;7363589;32;20115;-62
2022/05/31 22:28:13;;;;;;;8.80;7.57;;;10.20;99.90;;;;;;7363416;32;20250;-61
2022/05/31 22:32:15;;;;;;;10.73;7.90;;;10.20;99.90;;;;;;7360622;32;20138;-61
2022/05/31 22:36:20;;;;;;;9.43;7.47;;;10.20;99.90;;;;;;7339247;32;20115;-61
2022/05/31 22:40:23;;;;;;;10.18;7.68;;;10.10;99.90;;;;;;7359828;32;20220;-61